Time;durP1;ratioP1;P1;durP2;ratioP2;P2;SDS_P1;SDS_P2;PMS_P1;PMS_P2;Temp;Humidity;BMP_temperature;BMP_pressure;BME280_temperature;BME280_humidity;BME280_pressure;Samples;Min_cycle;Max_cycle;Signal;HPM_P1;HPM_P2
2023/02/26 00:00:12;;;;;;;2.90;1.17;;;-0.90;99.90;;;;;;12536851;28;20057;-80
2023/02/26 00:06:14;;;;;;;5.05;1.17;;;-0.90;99.90;;;;;;12488707;28;20045;-79
2023/02/26 00:12:16;;;;;;;4.55;1.20;;;-0.70;99.90;;;;;;12528476;28;20159;-79
2023/02/26 00:18:19;;;;;;;4.65;1.20;;;-0.70;99.90;;;;;;12536966;28;20493;-80
2023/02/26 00:24:21;;;;;;;4.95;1.38;;;-0.80;99.90;;;;;;12536752;28;20175;-79
2023/02/26 00:30:23;;;;;;;2.60;1.30;;;-0.80;99.90;;;;;;12545654;28;20139;-79
2023/02/26 00:36:51;;;;;;;2.88;1.25;;;-0.80;99.90;;;;;;12527126;28;20076;-79
2023/02/26 00:42:53;;;;;;;2.72;1.02;;;-0.90;99.90;;;;;;12525208;28;20048;-79
2023/02/26 00:49:11;;;;;;;2.85;1.38;;;-0.90;99.90;;;;;;12533005;28;20049;-80
2023/02/26 00:55:13;;;;;;;6.43;1.42;;;-0.80;99.90;;;;;;12521450;28;20174;-80
2023/02/26 01:01:15;;;;;;;5.38;1.33;;;-0.70;99.90;;;;;;12533664;28;20053;-80
2023/02/26 01:07:23;;;;;;;2.63;0.80;;;-0.60;99.90;;;;;;12511305;28;20049;-79
2023/02/26 01:13:25;;;;;;;3.58;0.95;;;-0.50;99.90;;;;;;12513804;28;20045;-79
2023/02/26 01:19:54;;;;;;;2.13;1.00;;;-0.50;99.90;;;;;;12529787;28;20144;-79
2023/02/26 01:26:01;;;;;;;5.65;1.10;;;-0.50;99.90;;;;;;12543097;28;20041;-80
2023/02/26 01:32:16;;;;;;;4.55;0.90;;;-0.50;99.90;;;;;;12519191;28;20082;-80
2023/02/26 01:38:27;;;;;;;2.92;0.77;;;-0.50;99.90;;;;;;12533126;28;20063;-81
2023/02/26 01:44:39;;;;;;;3.25;1.30;;;-0.70;99.90;;;;;;12526902;28;20053;-80
2023/02/26 01:50:41;;;;;;;1.83;0.80;;;-0.70;99.90;;;;;;12562886;28;20049;-79
2023/02/26 01:56:46;;;;;;;4.60;1.13;;;-0.80;99.90;;;;;;12548173;28;20048;-80
2023/02/26 02:02:49;;;;;;;2.88;0.95;;;-1.00;99.90;;;;;;12565180;28;20177;-80
2023/02/26 02:08:52;;;;;;;5.75;0.95;;;-1.10;99.90;;;;;;12540201;28;20507;-80
2023/02/26 02:15:06;;;;;;;4.25;0.85;;;-1.20;99.90;;;;;;12545663;28;20186;-79
2023/02/26 02:21:37;;;;;;;3.85;0.85;;;-1.30;99.90;;;;;;12549251;28;20123;-80
2023/02/26 02:27:51;;;;;;;7.03;1.33;;;-1.20;99.90;;;;;;12554231;28;20064;-79
2023/02/26 02:34:15;;;;;;;2.67;0.77;;;-1.10;99.90;;;;;;12555399;28;20041;-81
2023/02/26 02:40:28;;;;;;;1.97;0.70;;;-1.00;99.90;;;;;;12561280;28;20049;-79
2023/02/26 02:46:34;;;;;;;3.30;0.93;;;-0.90;99.90;;;;;;12538605;28;20070;-79
2023/02/26 02:52:57;;;;;;;6.03;1.05;;;-0.80;99.90;;;;;;12535249;28;20106;-79
2023/02/26 02:59:15;;;;;;;2.17;0.85;;;-0.90;99.90;;;;;;12504730;28;20109;-79
2023/02/26 03:05:17;;;;;;;5.20;1.10;;;-0.80;99.90;;;;;;12483810;28;20106;-78
2023/02/26 03:11:20;;;;;;;3.70;1.00;;;-0.90;99.90;;;;;;12482232;28;20037;-79
2023/02/26 03:17:42;;;;;;;8.55;0.90;;;-1.00;99.90;;;;;;12495368;28;20048;-80
2023/02/26 03:23:53;;;;;;;3.20;0.77;;;-1.10;99.90;;;;;;12509736;28;20049;-79
2023/02/26 03:30:03;;;;;;;2.00;0.57;;;-1.00;99.90;;;;;;12490441;28;20059;-79
2023/02/26 03:36:21;;;;;;;3.30;0.95;;;-1.10;99.90;;;;;;12499631;28;20048;-80
2023/02/26 03:42:23;;;;;;;2.28;1.15;;;-1.40;99.90;;;;;;12501317;28;20375;-78
2023/02/26 03:48:27;;;;;;;2.35;0.88;;;-1.50;99.90;;;;;;12497063;28;20053;-79
2023/02/26 03:54:44;;;;;;;4.20;0.95;;;-1.40;99.90;;;;;;12516518;28;20041;-79
2023/02/26 04:00:54;;;;;;;3.92;1.00;;;-1.40;99.90;;;;;;12532225;28;20087;-79
2023/02/26 04:06:57;;;;;;;3.38;1.00;;;-1.40;99.90;;;;;;12526922;28;20088;-78
2023/02/26 04:13:00;;;;;;;3.95;1.20;;;-1.30;99.90;;;;;;12532040;28;20131;-78
2023/02/26 04:19:02;;;;;;;3.22;0.90;;;-1.30;99.90;;;;;;12528407;28;20065;-78
2023/02/26 04:25:05;;;;;;;7.13;1.35;;;-1.20;99.90;;;;;;12534057;28;20126;-78
2023/02/26 04:31:07;;;;;;;2.22;0.93;;;-1.20;99.90;;;;;;12527146;28;20124;-78
2023/02/26 04:37:10;;;;;;;6.05;1.70;;;-1.20;99.90;;;;;;12529064;28;20057;-78
2023/02/26 04:43:12;;;;;;;7.78;0.85;;;-1.10;99.90;;;;;;12532345;28;20476;-78
2023/02/26 04:49:14;;;;;;;5.07;1.00;;;-1.20;99.90;;;;;;12526383;28;20135;-79
2023/02/26 04:55:16;;;;;;;4.35;0.80;;;-1.20;99.90;;;;;;12504080;28;20056;-79
2023/02/26 05:01:18;;;;;;;3.17;0.95;;;-1.30;99.90;;;;;;12488909;28;20052;-79
2023/02/26 05:07:20;;;;;;;5.82;1.17;;;-1.30;99.90;;;;;;12487532;28;20060;-80
2023/02/26 05:13:21;;;;;;;6.82;0.82;;;-1.50;99.90;;;;;;12480701;28;20041;-79
2023/02/26 05:19:23;;;;;;;6.40;0.80;;;-1.40;99.90;;;;;;12489981;28;20044;-79
2023/02/26 05:25:25;;;;;;;4.63;1.20;;;-1.50;99.90;;;;;;12478877;28;20114;-79
2023/02/26 05:31:28;;;;;;;3.55;1.20;;;-1.60;99.90;;;;;;12485385;28;20099;-79
2023/02/26 05:37:30;;;;;;;2.50;0.80;;;-1.70;99.90;;;;;;12505817;28;20069;-78
2023/02/26 05:43:32;;;;;;;4.97;1.10;;;-1.90;99.90;;;;;;12484521;28;20412;-78
2023/02/26 05:49:34;;;;;;;3.40;1.08;;;-2.00;99.90;;;;;;12488277;28;20173;-79
2023/02/26 05:55:36;;;;;;;3.58;1.10;;;-2.00;99.90;;;;;;12499678;28;20045;-79
2023/02/26 06:01:41;;;;;;;2.92;0.85;;;-2.10;99.90;;;;;;12551488;28;20084;-78
2023/02/26 06:07:43;;;;;;;2.85;0.90;;;-2.10;99.90;;;;;;12524859;28;20045;-79
2023/02/26 06:13:45;;;;;;;8.57;1.17;;;-2.00;99.90;;;;;;12521087;28;20049;-79
2023/02/26 06:19:47;;;;;;;4.25;0.82;;;-2.10;99.90;;;;;;12519348;28;20056;-79
2023/02/26 06:25:51;;;;;;;1.63;0.50;;;-2.10;99.90;;;;;;12555636;28;20057;-79
2023/02/26 06:31:53;;;;;;;2.83;0.57;;;-2.10;99.90;;;;;;12537660;28;20408;-79
2023/02/26 06:37:56;;;;;;;3.13;0.90;;;-2.10;99.90;;;;;;12528698;28;20080;-78
2023/02/26 06:43:58;;;;;;;3.17;0.93;;;-2.10;99.90;;;;;;12516881;28;20105;-78
2023/02/26 06:50:01;;;;;;;2.85;1.00;;;-2.00;99.90;;;;;;12539653;28;20477;-79
2023/02/26 06:56:04;;;;;;;2.45;0.80;;;-1.90;99.90;;;;;;12497978;28;20057;-79
2023/02/26 07:02:06;;;;;;;2.78;0.82;;;-1.70;99.90;;;;;;12491483;28;20094;-79
2023/02/26 07:08:08;;;;;;;7.55;0.93;;;-1.60;99.90;;;;;;12484843;28;20145;-79
2023/02/26 07:14:11;;;;;;;3.47;0.70;;;-1.60;99.90;;;;;;12494846;28;20041;-79
2023/02/26 07:20:13;;;;;;;3.50;1.00;;;-1.30;99.90;;;;;;12486735;28;20221;-79
2023/02/26 07:26:16;;;;;;;4.68;0.98;;;-1.10;99.90;;;;;;12491070;28;20056;-80
2023/02/26 07:32:18;;;;;;;2.50;0.90;;;-1.20;99.90;;;;;;12491873;28;20481;-79
2023/02/26 07:38:20;;;;;;;3.28;0.90;;;-1.00;99.90;;;;;;12482947;28;20048;-78
2023/02/26 07:44:22;;;;;;;4.97;1.17;;;-1.00;99.90;;;;;;12505137;28;20053;-79
2023/02/26 07:50:24;;;;;;;3.50;0.88;;;-0.80;99.90;;;;;;12500920;28;20041;-79
2023/02/26 07:56:27;;;;;;;4.38;0.90;;;-0.70;99.90;;;;;;12524039;28;20195;-78
2023/02/26 08:02:29;;;;;;;4.07;0.90;;;-0.70;99.90;;;;;;12532391;28;20059;-78
2023/02/26 08:08:32;;;;;;;3.95;1.50;;;-0.30;99.90;;;;;;12516279;28;20078;-79
2023/02/26 08:14:34;;;;;;;5.53;1.10;;;0.10;99.90;;;;;;12530747;28;20048;-79
2023/02/26 08:20:37;;;;;;;2.22;0.80;;;0.10;99.90;;;;;;12559327;28;20053;-79
2023/02/26 08:26:39;;;;;;;3.90;0.95;;;0.30;99.90;;;;;;12528940;28;20060;-79
2023/02/26 08:32:41;;;;;;;3.67;0.70;;;0.50;99.90;;;;;;12524575;28;20099;-80
2023/02/26 08:38:43;;;;;;;4.32;1.13;;;0.80;99.90;;;;;;12516638;28;20045;-80
2023/02/26 08:44:46;;;;;;;3.72;1.58;;;0.90;99.90;;;;;;12505902;28;20045;-80
2023/02/26 08:50:49;;;;;;;7.63;1.42;;;0.90;99.90;;;;;;12521088;28;20524;-79
2023/02/26 08:56:54;;;;;;;2.88;0.88;;;1.10;99.90;;;;;;12497548;28;20509;-80
2023/02/26 09:02:56;;;;;;;3.55;0.88;;;1.10;99.90;;;;;;12482114;28;20052;-80
2023/02/26 09:08:58;;;;;;;3.17;0.80;;;1.10;99.90;;;;;;12475244;28;20037;-80
2023/02/26 09:15:00;;;;;;;4.97;0.80;;;1.50;99.90;;;;;;12474514;28;20055;-80
2023/02/26 09:21:04;;;;;;;2.33;0.43;;;1.40;99.90;;;;;;12498564;28;20382;-80
2023/02/26 09:27:06;;;;;;;2.25;0.95;;;1.50;99.90;;;;;;12486536;28;20048;-79
2023/02/26 09:33:08;;;;;;;3.20;0.50;;;1.70;99.90;;;;;;12488017;28;20083;-80
2023/02/26 09:39:11;;;;;;;2.78;0.85;;;1.60;99.90;;;;;;12545631;28;20116;-80
2023/02/26 09:45:33;;;;;;;2.03;0.65;;;1.70;99.90;;;;;;12553042;28;20061;-81
2023/02/26 09:51:35;;;;;;;2.75;0.40;;;2.00;99.90;;;;;;12570747;28;20057;-80
2023/02/26 09:57:42;;;;;;;4.15;0.68;;;1.80;99.90;;;;;;12578413;28;20041;-80
2023/02/26 10:04:16;;;;;;;1.67;0.50;;;2.10;99.90;;;;;;12587224;28;20083;-81
2023/02/26 10:10:24;;;;;;;3.70;0.75;;;2.10;99.90;;;;;;12584606;28;20114;-80
2023/02/26 10:16:31;;;;;;;2.92;0.55;;;2.30;99.90;;;;;;12576282;28;20068;-79
2023/02/26 10:22:54;;;;;;;2.55;0.60;;;2.50;99.90;;;;;;12558496;28;20060;-79
2023/02/26 10:29:20;;;;;;;3.08;0.50;;;2.70;99.90;;;;;;12537946;28;20132;-80
2023/02/26 10:35:28;;;;;;;4.72;0.50;;;2.60;99.90;;;;;;12538256;28;20041;-78
2023/02/26 10:41:35;;;;;;;1.83;0.43;;;2.80;99.90;;;;;;12527205;28;20048;-80
2023/02/26 10:48:19;;;;;;;3.97;0.90;;;2.90;99.90;;;;;;12518963;28;20538;-79
2023/02/26 10:54:27;;;;;;;1.27;0.60;;;3.30;99.90;;;;;;12503637;28;20106;-80
2023/02/26 11:00:30;;;;;;;2.97;0.60;;;3.30;99.90;;;;;;12511174;28;20048;-78
2023/02/26 11:06:44;;;;;;;2.35;0.82;;;3.80;99.90;;;;;;12505587;28;20064;-79
2023/02/26 11:12:46;;;;;;;2.22;0.52;;;3.90;99.90;;;;;;12521541;28;20083;-80
2023/02/26 11:18:53;;;;;;;2.65;0.52;;;3.10;99.90;;;;;;12535675;28;20174;-79
2023/02/26 11:24:55;;;;;;;1.85;0.50;;;2.40;99.90;;;;;;12509649;28;20048;-79
2023/02/26 11:31:04;;;;;;;11.10;1.33;;;2.00;99.90;;;;;;12510796;28;20690;-79
2023/02/26 11:37:06;;;;;;;1.95;0.40;;;2.70;99.90;;;;;;12491699;28;20193;-80
2023/02/26 11:43:17;;;;;;;3.38;0.70;;;3.40;99.90;;;;;;12479771;28;20089;-79
2023/02/26 11:49:26;;;;;;;2.33;0.40;;;3.00;99.90;;;;;;12513778;28;20057;-80
2023/02/26 11:55:36;;;;;;;2.58;0.50;;;3.00;99.90;;;;;;12481129;28;21209;-80
2023/02/26 12:01:41;;;;;;;1.40;0.60;;;2.50;99.90;;;;;;12503548;28;20171;-78
2023/02/26 12:07:45;;;;;;;2.70;0.57;;;2.80;99.90;;;;;;12531767;28;20271;-78
2023/02/26 12:13:59;;;;;;;2.93;0.60;;;4.00;99.90;;;;;;12526920;28;20099;-80
2023/02/26 12:20:18;;;;;;;1.02;0.30;;;4.10;99.90;;;;;;12553309;28;20595;-79
2023/02/26 12:26:28;;;;;;;2.92;0.70;;;3.70;99.90;;;;;;12527258;28;20518;-79
2023/02/26 12:32:46;;;;;;;3.05;0.65;;;3.30;99.90;;;;;;12500760;28;20140;-78
2023/02/26 12:38:59;;;;;;;4.50;0.60;;;3.10;99.90;;;;;;12532728;28;20048;-79
2023/02/26 12:45:26;;;;;;;0.93;0.45;;;2.90;99.90;;;;;;12524757;28;20053;-79
2023/02/26 12:51:59;;;;;;;1.73;0.65;;;3.10;99.90;;;;;;12525526;28;20502;-80
2023/02/26 12:58:30;;;;;;;2.05;0.68;;;4.00;99.90;;;;;;12526387;28;20404;-79
2023/02/26 13:04:46;;;;;;;5.03;0.88;;;4.20;99.90;;;;;;12547618;28;20040;-78
2023/02/26 13:11:00;;;;;;;3.13;0.60;;;3.90;99.90;;;;;;12528313;28;20048;-80
2023/02/26 13:17:17;;;;;;;2.97;0.65;;;3.70;99.90;;;;;;12541238;28;20139;-80
2023/02/26 13:23:23;;;;;;;3.28;0.90;;;3.60;99.90;;;;;;12540619;28;20091;-79
2023/02/26 13:29:35;;;;;;;2.85;0.70;;;3.30;99.90;;;;;;12513667;28;20073;-79
2023/02/26 13:35:41;;;;;;;1.55;0.55;;;3.80;99.90;;;;;;12511837;28;20123;-80
2023/02/26 13:41:57;;;;;;;1.58;0.50;;;4.30;99.90;;;;;;12530547;28;20036;-79
2023/02/26 13:48:33;;;;;;;1.65;0.65;;;3.70;99.90;;;;;;12529564;28;20052;-79
2023/02/26 13:54:43;;;;;;;2.05;1.13;;;3.20;99.90;;;;;;12535956;28;20424;-79
2023/02/26 14:00:56;;;;;;;3.28;0.80;;;3.60;99.90;;;;;;12548632;28;20506;-79
2023/02/26 14:06:59;;;;;;;4.72;0.75;;;3.90;99.90;;;;;;12521438;28;20413;-79
2023/02/26 14:13:18;;;;;;;1.75;0.55;;;4.00;99.90;;;;;;12518710;28;20083;-78
2023/02/26 14:19:25;;;;;;;2.65;0.55;;;3.30;99.90;;;;;;12519978;28;20057;-80
2023/02/26 14:25:46;;;;;;;1.65;0.50;;;3.50;99.90;;;;;;12546082;28;20076;-80
2023/02/26 14:32:09;;;;;;;2.60;0.57;;;3.70;99.90;;;;;;12503970;28;20140;-78
2023/02/26 14:38:23;;;;;;;2.80;0.40;;;3.60;99.90;;;;;;12496034;28;20413;-78
2023/02/26 14:44:29;;;;;;;2.28;0.50;;;3.50;99.90;;;;;;12548086;28;20078;-79
2023/02/26 14:51:02;;;;;;;3.03;0.50;;;3.60;99.90;;;;;;12530134;28;20044;-81
2023/02/26 14:57:14;;;;;;;2.30;0.60;;;3.70;99.90;;;;;;12541584;28;20126;-78
2023/02/26 15:03:45;;;;;;;1.38;0.45;;;3.60;99.90;;;;;;12534911;28;20060;-80
2023/02/26 15:10:08;;;;;;;1.42;0.30;;;3.30;99.90;;;;;;12547002;28;20131;-79
2023/02/26 15:16:56;;;;;;;2.35;0.65;;;3.30;99.90;;;;;;12547636;28;20139;-79
2023/02/26 15:23:00;;;;;;;2.20;0.60;;;3.40;99.90;;;;;;12528387;28;20048;-79
2023/02/26 15:29:08;;;;;;;1.60;0.70;;;3.70;99.90;;;;;;12529222;28;20053;-79
2023/02/26 15:35:20;;;;;;;1.58;0.55;;;3.60;99.90;;;;;;12531402;28;20037;-78
2023/02/26 15:41:28;;;;;;;1.38;0.63;;;3.60;99.90;;;;;;12527488;28;20056;-79
2023/02/26 15:47:30;;;;;;;1.95;0.52;;;3.20;99.90;;;;;;12527173;28;20204;-79
2023/02/26 15:53:46;;;;;;;2.28;0.68;;;3.10;99.90;;;;;;12528806;28;20053;-79
2023/02/26 15:59:51;;;;;;;2.88;0.60;;;3.00;99.90;;;;;;12544375;28;20114;-79
2023/02/26 16:05:55;;;;;;;5.07;0.85;;;3.00;99.90;;;;;;12530579;28;20053;-78
2023/02/26 16:12:01;;;;;;;1.05;0.50;;;2.80;99.90;;;;;;12536506;28;20045;-80
2023/02/26 16:18:10;;;;;;;2.45;0.60;;;2.60;99.90;;;;;;12531889;28;20138;-78
2023/02/26 16:24:17;;;;;;;3.78;1.27;;;2.50;99.90;;;;;;12543044;28;20143;-79
2023/02/26 16:30:25;;;;;;;2.28;0.70;;;2.40;99.90;;;;;;12547730;28;20073;-79
2023/02/26 16:36:40;;;;;;;4.18;1.08;;;2.40;99.90;;;;;;12533326;28;20102;-79
2023/02/26 16:42:53;;;;;;;;;;;2.40;99.90;;;;;;12534802;28;20538;-79
2023/02/26 16:49:09;;;;;;;3.70;0.80;;;2.50;99.90;;;;;;12530717;28;19921;-78
2023/02/26 16:55:17;;;;;;;2.35;0.50;;;2.30;99.90;;;;;;12520904;28;20091;-78
2023/02/26 17:01:21;;;;;;;4.43;0.90;;;2.30;99.90;;;;;;12524886;28;20048;-79
2023/02/26 17:07:35;;;;;;;;;;;2.30;99.90;;;;;;12521652;28;21420;-78
2023/02/26 17:13:37;;;;;;;3.40;0.80;;;2.20;99.90;;;;;;12522572;28;19928;-78
2023/02/26 17:19:39;;;;;;;3.15;0.60;;;2.10;99.90;;;;;;12512389;28;20404;-79
2023/02/26 17:25:44;;;;;;;3.83;0.95;;;2.00;99.90;;;;;;12529019;28;20048;-79
2023/02/26 17:31:46;;;;;;;5.13;1.13;;;2.00;99.90;;;;;;12541982;28;20048;-78
2023/02/26 17:37:50;;;;;;;3.88;1.10;;;1.90;99.90;;;;;;12507751;28;20417;-78
2023/02/26 17:43:53;;;;;;;2.10;0.95;;;1.90;99.90;;;;;;12519483;28;20049;-78
2023/02/26 17:49:54;;;;;;;2.92;0.70;;;1.90;99.90;;;;;;12525171;28;20179;-79
2023/02/26 17:55:57;;;;;;;5.38;0.98;;;2.00;99.90;;;;;;12544041;28;20048;-78
2023/02/26 18:01:59;;;;;;;3.45;0.60;;;1.90;99.90;;;;;;12530570;28;20048;-78
2023/02/26 18:08:01;;;;;;;3.25;1.00;;;1.90;99.90;;;;;;12521555;28;20527;-78
2023/02/26 18:14:04;;;;;;;2.83;0.88;;;1.70;99.90;;;;;;12524037;28;20049;-79
2023/02/26 18:20:12;;;;;;;3.33;1.00;;;1.70;99.90;;;;;;12519712;28;20075;-79
2023/02/26 18:26:16;;;;;;;2.63;1.10;;;1.40;99.90;;;;;;12482411;28;20784;-79
2023/02/26 18:32:21;;;;;;;2.85;1.17;;;1.30;99.90;;;;;;12530923;28;20048;-78
2023/02/26 18:38:26;;;;;;;4.43;1.00;;;1.30;99.90;;;;;;12534114;28;20127;-80
2023/02/26 18:44:28;;;;;;;3.03;0.90;;;1.30;99.90;;;;;;12528847;28;20087;-78
2023/02/26 18:50:30;;;;;;;5.18;1.48;;;1.30;99.90;;;;;;12532858;28;20727;-78
2023/02/26 18:56:32;;;;;;;2.90;1.20;;;1.20;99.90;;;;;;12530030;28;20174;-80
2023/02/26 19:02:34;;;;;;;3.67;1.00;;;1.20;99.90;;;;;;12530417;28;20194;-79
2023/02/26 19:08:36;;;;;;;4.05;1.52;;;1.00;99.90;;;;;;12534539;28;20052;-80
2023/02/26 19:14:38;;;;;;;2.92;1.00;;;1.00;99.90;;;;;;12543499;28;20052;-78
2023/02/26 19:20:40;;;;;;;3.55;1.30;;;0.80;99.90;;;;;;12528225;28;20132;-79
2023/02/26 19:26:43;;;;;;;4.10;1.00;;;0.70;99.90;;;;;;12528701;28;20053;-79
2023/02/26 19:32:45;;;;;;;5.32;1.00;;;0.60;99.90;;;;;;12539287;28;20126;-79
2023/02/26 19:38:48;;;;;;;6.20;1.20;;;0.50;99.90;;;;;;12523335;28;20070;-79
2023/02/26 19:44:50;;;;;;;3.28;1.13;;;0.70;99.90;;;;;;12551047;28;20501;-79
2023/02/26 19:50:54;;;;;;;4.03;1.00;;;0.60;99.90;;;;;;12528934;28;20105;-79
2023/02/26 19:56:56;;;;;;;3.08;1.00;;;0.60;99.90;;;;;;12537458;28;20072;-79
2023/02/26 20:02:58;;;;;;;6.90;1.48;;;0.50;99.90;;;;;;12530923;28;20049;-79
2023/02/26 20:09:00;;;;;;;5.05;1.05;;;0.50;99.90;;;;;;12545844;28;20135;-78
2023/02/26 20:15:02;;;;;;;4.78;1.40;;;0.40;99.90;;;;;;12525761;28;20503;-79
2023/02/26 20:21:08;;;;;;;5.45;1.40;;;0.30;99.90;;;;;;12533910;28;20057;-78
2023/02/26 20:27:11;;;;;;;7.07;1.50;;;0.10;99.90;;;;;;12530097;28;20056;-78
2023/02/26 20:33:13;;;;;;;3.38;1.20;;;0.10;99.90;;;;;;12520947;28;20052;-79
2023/02/26 20:39:17;;;;;;;3.00;1.23;;;0.10;99.90;;;;;;12549064;28;20143;-80
2023/02/26 20:45:19;;;;;;;4.40;1.20;;;0.10;99.90;;;;;;12525161;28;20485;-79
2023/02/26 20:51:22;;;;;;;3.95;1.38;;;0.00;99.90;;;;;;12524100;28;20462;-79
2023/02/26 20:57:24;;;;;;;3.92;1.73;;;0.20;99.90;;;;;;12534403;28;20060;-79
2023/02/26 21:03:26;;;;;;;5.13;1.70;;;0.20;99.90;;;;;;12531580;28;20049;-78
2023/02/26 21:09:27;;;;;;;4.55;1.48;;;0.10;99.90;;;;;;12524385;28;20041;-78
2023/02/26 21:15:30;;;;;;;3.17;2.00;;;0.00;99.90;;;;;;12526153;28;20045;-79
2023/02/26 21:21:32;;;;;;;5.65;1.60;;;-0.10;99.90;;;;;;12529700;28;20049;-79
2023/02/26 21:27:35;;;;;;;5.63;1.98;;;-0.10;99.90;;;;;;12525519;28;20055;-78
2023/02/26 21:33:37;;;;;;;3.13;1.40;;;-0.10;99.90;;;;;;12549562;28;20155;-78
2023/02/26 21:39:39;;;;;;;5.18;1.40;;;0.00;99.90;;;;;;12536453;28;20521;-78
2023/02/26 21:45:43;;;;;;;2.42;1.10;;;0.10;99.90;;;;;;12529598;28;20061;-78
2023/02/26 21:51:45;;;;;;;5.87;1.53;;;0.10;99.90;;;;;;12544645;28;20052;-78
2023/02/26 21:57:47;;;;;;;6.05;1.42;;;-0.10;99.90;;;;;;12529443;28;20140;-78
2023/02/26 22:03:49;;;;;;;3.78;1.75;;;-0.20;99.90;;;;;;12517087;28;20055;-78
2023/02/26 22:09:51;;;;;;;6.13;1.65;;;-0.30;99.90;;;;;;12536322;28;20053;-78
2023/02/26 22:15:53;;;;;;;4.45;1.63;;;-0.40;99.90;;;;;;12510993;28;20606;-79
2023/02/26 22:21:55;;;;;;;4.90;1.60;;;-0.40;99.90;;;;;;12528440;28;20061;-79
2023/02/26 22:27:57;;;;;;;4.82;1.65;;;-0.40;99.90;;;;;;12529198;28;20052;-80
2023/02/26 22:33:59;;;;;;;4.97;3.20;;;-0.50;99.90;;;;;;12526910;28;20092;-78
2023/02/26 22:40:02;;;;;;;6.25;2.08;;;-0.50;99.90;;;;;;12529284;28;20068;-78
2023/02/26 22:46:04;;;;;;;5.95;2.20;;;-0.40;99.90;;;;;;12523137;28;20465;-78
2023/02/26 22:52:06;;;;;;;6.07;2.00;;;-0.40;99.90;;;;;;12527835;28;20048;-79
2023/02/26 22:58:08;;;;;;;5.60;2.28;;;-0.20;99.90;;;;;;12521194;28;20628;-79
2023/02/26 23:04:10;;;;;;;5.78;2.20;;;-0.20;99.90;;;;;;12522515;28;20045;-78
2023/02/26 23:10:15;;;;;;;5.68;2.25;;;-0.30;99.90;;;;;;12532590;28;20088;-78
2023/02/26 23:16:17;;;;;;;4.57;2.08;;;-0.40;99.90;;;;;;12532034;28;20064;-78
2023/02/26 23:22:19;;;;;;;4.75;1.95;;;-0.50;99.90;;;;;;12522771;28;20056;-79
2023/02/26 23:28:22;;;;;;;6.28;1.90;;;-0.60;99.90;;;;;;12540949;28;20049;-79
2023/02/26 23:34:26;;;;;;;6.43;2.20;;;-0.70;99.90;;;;;;12569607;28;20032;-79
2023/02/26 23:40:28;;;;;;;6.85;2.53;;;-0.70;99.90;;;;;;12601821;28;20029;-79
2023/02/26 23:46:30;;;;;;;9.48;2.80;;;-0.90;99.90;;;;;;12585545;28;20075;-78
2023/02/26 23:52:32;;;;;;;10.90;2.47;;;-1.00;99.90;;;;;;12549179;28;20045;-78
2023/02/26 23:58:34;;;;;;;7.30;2.17;;;-1.10;99.90;;;;;;12541202;28;20053;-78
